Surface observations / Quebec / CYHU

Quebec | Canada | USA | France | UK | Europe | Elsewhere

Display: Info & Location for CYHU | Help decoding METAR

YHU SAINT-HUBERT ARPT QB CN
Raw surface observations for station CYHU
CYHU 251100Z AUTO 20003KT 7SM CLR 03/02 A2973 RMK SLP067=
CYHU 251000Z AUTO 24008KT 9SM CLR 07/04 A2973 RMK SLP069=
CYHU 250900Z AUTO 25008KT 9SM CLR 07/05 A2974 RMK SLP070=
CYHU 250800Z AUTO VRB02KT 9SM SCT160 03/01 A2974 RMK SLP070=
CYHU 250700Z AUTO 14002KT 9SM OVC160 03/02 A2975 RMK SLP074=
CYHU 250600Z AUTO 14003KT 9SM BKN160 03/02 A2975 RMK SLP075=
CYHU 250500Z AUTO VRB02KT 9SM CLR 03/02 A2976 RMK SLP079=
CYHU 250400Z AUTO 00000KT 9SM CLR 04/02 A2978 RMK SLP085=
CYHU 250300Z AUTO 16003KT 9SM CLR 04/02 A2979 RMK SLP089=
CYHU 250200Z AUTO 17003KT 9SM CLR 05/03 A2981 RMK SLP094=
CYHU 250100Z AUTO 18004KT 9SM CLR 07/04 A2982 RMK SLP097=
CYHU 250000Z AUTO 22005KT 9SM CLR 08/03 A2982 RMK SLP099=
CYHU 242300Z AUTO 22005KT 9SM CLR 08/04 A2983 RMK SLP101=
CYHU 242200Z AUTO 22006KT 9SM OVC110 10/04 A2982 RMK SLP098=
CYHU 242100Z AUTO 24006KT 9SM SCT065 OVC085 12/03 A2982 RMK SLP100=
CYHU 242000Z AUTO VRB02KT 9SM OVC049 12/02 A2983 RMK SLP102=
CYHU 241900Z AUTO 02005KT 9SM BKN042 OVC060 12/03 A2983 RMK SLP103=
CYHU 241800Z AUTO 03006KT 330V050 9SM OVC036 11/04 A2985 RMK SLP108=
CYHU 241700Z AUTO 01006KT 9SM OVC032 11/04 A2986 RMK SLP112=
CYHU 241600Z AUTO 02007KT 9SM OVC032 10/05 A2988 RMK SLP119=
CYHU 241500Z AUTO 01005KT 9SM OVC036 09/05 A2989 RMK SLP121=
CYHU 241400Z AUTO 04006KT 9SM OVC038 08/06 A2990 RMK SLP126=
CYHU 241300Z AUTO 34004KT 9SM OVC036 08/05 A2989 RMK SLP123=
CYHU 241232Z AUTO 33005KT 9SM OVC034 08/05 A2990 RMK SLP124=
CYHU 241200Z AUTO 31005KT 9SM -RA OVC032 07/06 A2990 RMK SLP125=
CYHU 241100Z AUTO 34006KT 9SM -RA OVC030 07/05 A2990 RMK SLP125=